logo
Rechercher aéroport 
image banner adimage banner adimage banner ad
image banner ad

LKBN - Brno - Bohunice Reserve

Situé à Brno, Czech Republic

ICAO - , IATA -

Données fournies par Airmate  

Information générale

Coordonnées: N49°10'33" E16°34'10"
Élévation : 967 feet MSL.
 
Voir autres Aéroports à South Moravian Region

Données opérationnelles

Special qualification required
Heure actuelle UTC:
Heure actuelle locale:
Météo à : LKTB - Brno/Turany ( 9 km )
TAF: TAF LKTB 281700Z 2818/2918 32008KT CAVOK BECMG 2907/2909 9999 BKN025 TEMPO 2912/2916 6000 SHRA SCT030CB BECMG 2916/2918 CAVOK
Voir NOTAMs / SUP AIP / TFR affectant cet aéroport [VIEW]
Fréquences de communication: [VIEW]

Pistes:

Coordonnées de l'aéroport

Adresse: Brno Czech Republic

Vue satellite de LKBN